EDMA/AGB METAR and TAF weather

Enter ICAO airport designator
Station Type Date Time Source
EDMA METAR 2022/06/26 07:50 UTC NOAA

EDMA 260750Z VRB01KT CAVOK 22/16 Q1016


Station Type Date Time Source
EDMA Decoded METAR 2022/06/26 07:50 UTC NOAA

Augsburg, Germany (EDMA) 48-26N 010-56E 463M
Jun 26, 2022 - 03:50 AM EDT / 2022.06.26 0750 UTC
Wind: Variable at 1 MPH (1 KT):0
Visibility: greater than 7 mile(s):0
Temperature: 71 F (22 C)
Dew Point: 60 F (16 C)
Relative Humidity: 68%
Pressure (altimeter): 30.00 in. Hg (1016 hPa)
ob: EDMA 260750Z VRB01KT CAVOK 22/16 Q1016
cycle: 8

Station Type Date Time Source
EDMA TAF 2010/02/22 13:50 UTC NOAA

METAR EDMA 221350Z 23006KT CAVOK 10/02 Q0996

Example: see airport list